Time;durP1;ratioP1;P1;durP2;ratioP2;P2;SDS_P1;SDS_P2;PMS_P1;PMS_P2;Temp;Humidity;BMP_temperature;BMP_pressure;BME280_temperature;BME280_humidity;BME280_pressure;Samples;Min_cycle;Max_cycle;Signal;HPM_P1;HPM_P2
2022/09/28 00:02:16;;;;;;;3.03;2.47;;;11.90;99.90;;;;;;4993957;28;20412;-49
2022/09/28 00:04:42;;;;;;;5.80;3.10;;;11.70;99.90;;;;;;4993783;28;20553;-50
2022/09/28 00:07:09;;;;;;;2.63;2.40;;;11.80;99.90;;;;;;4993866;28;20439;-49
2022/09/28 00:09:36;;;;;;;5.57;2.87;;;11.80;99.90;;;;;;4993362;28;20496;-49
2022/09/28 00:12:05;;;;;;;5.07;3.43;;;11.80;99.90;;;;;;4993505;28;20483;-50
2022/09/28 00:14:32;;;;;;;4.50;3.30;;;11.70;99.90;;;;;;4993552;28;20514;-50
2022/09/28 00:16:58;;;;;;;3.40;2.50;;;11.80;99.90;;;;;;4993695;28;20531;-49
2022/09/28 00:19:25;;;;;;;3.73;3.23;;;11.80;99.90;;;;;;4993258;28;20903;-49
2022/09/28 00:21:51;;;;;;;3.70;3.00;;;12.30;99.90;;;;;;4993526;28;20446;-50
2022/09/28 00:24:19;;;;;;;3.97;3.50;;;12.10;99.90;;;;;;4993399;28;21004;-49
2022/09/28 00:26:48;;;;;;;4.50;3.17;;;12.20;99.90;;;;;;4975970;28;20509;-49
2022/09/28 00:29:22;;;;;;;4.10;3.40;;;11.40;99.90;;;;;;4993054;28;20810;-50
2022/09/28 00:31:52;;;;;;;6.20;3.63;;;11.90;99.90;;;;;;4976063;28;20453;-50
2022/09/28 00:34:19;;;;;;;5.00;3.50;;;11.20;99.90;;;;;;4993676;28;20640;-49
2022/09/28 00:36:47;;;;;;;3.53;3.23;;;11.10;99.90;;;;;;4993402;28;20439;-49
2022/09/28 00:39:15;;;;;;;4.40;3.33;;;11.90;99.90;;;;;;4975323;28;20824;-49
2022/09/28 00:41:42;;;;;;;3.53;3.20;;;11.60;99.90;;;;;;4993071;28;20439;-50
2022/09/28 00:44:34;;;;;;;3.40;3.10;;;12.10;99.90;;;;;;4992951;28;20910;-50
2022/09/28 00:47:09;;;;;;;3.40;3.10;;;11.50;99.90;;;;;;4993434;28;20438;-49
2022/09/28 00:49:42;;;;;;;3.80;3.10;;;11.50;99.90;;;;;;4974725;28;20970;-48
2022/09/28 00:52:12;;;;;;;3.73;3.43;;;11.50;99.90;;;;;;4975487;28;20476;-49
2022/09/28 00:54:40;;;;;;;4.23;3.37;;;11.50;99.90;;;;;;4993308;28;20453;-49
2022/09/28 00:57:06;;;;;;;4.90;3.70;;;11.50;99.90;;;;;;4993041;28;20439;-49
2022/09/28 00:59:35;;;;;;;3.90;3.40;;;11.60;99.90;;;;;;4992530;28;20469;-49
2022/09/28 01:02:02;;;;;;;5.57;3.37;;;11.90;99.90;;;;;;4992809;28;20443;-48
2022/09/28 01:04:29;;;;;;;3.97;3.67;;;11.70;99.90;;;;;;4975341;28;20445;-49
2022/09/28 01:06:57;;;;;;;3.83;3.50;;;11.80;99.90;;;;;;4975501;28;20973;-49
2022/09/28 01:09:25;;;;;;;3.90;3.10;;;11.80;99.90;;;;;;4992525;28;20448;-49
2022/09/28 01:11:53;;;;;;;3.70;3.40;;;12.00;99.90;;;;;;4975300;28;20863;-50
2022/09/28 01:14:19;;;;;;;3.50;3.00;;;11.30;99.90;;;;;;4975690;28;20473;-50
2022/09/28 01:16:55;;;;;;;3.73;3.40;;;11.90;99.90;;;;;;4975234;28;20446;-49
2022/09/28 01:19:59;;;;;;;5.07;3.27;;;11.90;99.90;;;;;;4975256;28;20851;-50
2022/09/28 01:22:37;;;;;;;3.20;2.90;;;11.60;99.90;;;;;;4946660;28;20449;-49
2022/09/28 01:25:10;;;;;;;3.40;3.10;;;11.10;99.90;;;;;;4975071;28;20490;-49
2022/09/28 01:27:41;;;;;;;3.50;3.20;;;11.80;99.90;;;;;;4975215;28;20473;-50
2022/09/28 01:30:10;;;;;;;6.00;4.40;;;11.90;99.90;;;;;;4992451;28;20448;-49
2022/09/28 01:32:46;;;;;;;4.50;3.50;;;11.70;99.90;;;;;;4975328;28;20997;-49
2022/09/28 01:35:17;;;;;;;7.60;4.00;;;11.50;99.90;;;;;;4992481;28;20460;-49
2022/09/28 01:37:50;;;;;;;4.77;3.60;;;11.80;99.90;;;;;;4992579;28;20439;-49
2022/09/28 01:40:19;;;;;;;4.40;3.07;;;11.70;99.90;;;;;;4974972;28;20446;-50
2022/09/28 01:42:52;;;;;;;3.20;2.90;;;11.70;99.90;;;;;;4975121;28;20450;-50
2022/09/28 01:45:23;;;;;;;3.30;2.80;;;11.20;99.90;;;;;;4975008;28;20462;-49
2022/09/28 01:47:53;;;;;;;4.60;3.30;;;11.70;99.90;;;;;;4975262;28;20453;-49
2022/09/28 01:50:23;;;;;;;2.63;2.43;;;11.50;99.90;;;;;;4974459;28;20540;-49
2022/09/28 01:52:54;;;;;;;2.93;2.63;;;11.70;99.90;;;;;;4975100;28;20481;-49
2022/09/28 01:55:29;;;;;;;3.80;2.90;;;12.10;99.90;;;;;;4992356;28;20449;-49
2022/09/28 01:58:03;;;;;;;4.27;2.50;;;11.70;99.90;;;;;;4975342;28;20760;-50
2022/09/28 02:00:30;;;;;;;3.83;3.43;;;11.30;99.90;;;;;;4976052;28;20453;-49
2022/09/28 02:03:01;;;;;;;5.50;2.77;;;11.50;99.90;;;;;;4978575;28;20449;-49
2022/09/28 02:05:40;;;;;;;3.23;2.93;;;11.50;99.90;;;;;;4978523;28;20558;-50
2022/09/28 02:08:11;;;;;;;4.43;2.80;;;11.70;99.90;;;;;;4995933;28;20445;-51
2022/09/28 02:10:44;;;;;;;3.40;3.10;;;11.50;99.90;;;;;;4995529;28;20453;-50
2022/09/28 02:13:16;;;;;;;4.80;3.10;;;11.40;99.90;;;;;;4978388;28;20492;-50
2022/09/28 02:15:45;;;;;;;3.17;2.90;;;11.90;99.90;;;;;;4978300;28;20449;-49
2022/09/28 02:18:13;;;;;;;3.53;3.07;;;11.50;99.90;;;;;;4978419;28;20481;-50
2022/09/28 02:20:43;;;;;;;4.33;3.77;;;11.70;99.90;;;;;;4995301;28;20441;-50
2022/09/28 02:23:10;;;;;;;3.67;3.37;;;11.50;99.90;;;;;;4978053;28;20476;-50
2022/09/28 02:25:42;;;;;;;5.00;4.50;;;10.90;99.90;;;;;;4995490;28;20465;-50
2022/09/28 02:28:13;;;;;;;6.33;4.40;;;11.90;99.90;;;;;;4978280;28;20553;-50
2022/09/28 02:30:42;;;;;;;4.27;3.87;;;11.30;99.90;;;;;;4995493;28;20528;-50
2022/09/28 02:33:12;;;;;;;4.37;3.87;;;11.40;99.90;;;;;;4995418;28;20483;-50
2022/09/28 02:35:41;;;;;;;4.60;4.20;;;11.40;99.90;;;;;;4977868;28;20508;-50
2022/09/28 02:38:08;;;;;;;5.83;4.37;;;11.40;99.90;;;;;;4977998;28;20460;-50
2022/09/28 02:40:37;;;;;;;5.20;4.70;;;11.50;99.90;;;;;;4977536;28;20983;-49
2022/09/28 02:43:11;;;;;;;4.90;4.30;;;11.20;99.90;;;;;;4978004;28;20450;-50
2022/09/28 02:45:52;;;;;;;5.43;4.30;;;11.70;99.90;;;;;;4977942;28;20472;-50
2022/09/28 02:48:45;;;;;;;4.93;4.20;;;11.50;99.90;;;;;;4977752;28;20475;-50
2022/09/28 02:51:21;;;;;;;5.47;4.97;;;11.70;99.90;;;;;;4995262;28;20429;-50
2022/09/28 02:54:14;;;;;;;5.40;4.90;;;11.90;99.90;;;;;;4977578;28;20536;-50
2022/09/28 02:56:59;;;;;;;6.00;4.53;;;11.40;99.90;;;;;;4977737;28;20483;-50
2022/09/28 02:59:43;;;;;;;6.70;5.20;;;11.80;99.90;;;;;;4994674;28;20772;-49
2022/09/28 03:02:19;;;;;;;5.63;4.80;;;10.80;99.90;;;;;;4977652;28;20446;-50
2022/09/28 03:04:55;;;;;;;6.53;4.93;;;11.50;99.90;;;;;;4977579;28;20470;-50
2022/09/28 03:07:32;;;;;;;6.13;5.00;;;11.40;99.90;;;;;;4977560;28;20965;-50
2022/09/28 03:10:05;;;;;;;9.57;5.93;;;10.80;99.90;;;;;;4977307;28;20811;-51
2022/09/28 03:12:33;;;;;;;7.30;6.50;;;11.30;99.90;;;;;;4976909;28;20940;-49
2022/09/28 03:15:10;;;;;;;5.43;4.93;;;11.50;99.90;;;;;;4977379;28;20450;-50
2022/09/28 03:17:39;;;;;;;5.60;4.97;;;11.40;99.90;;;;;;4977214;28;20438;-50
2022/09/28 03:20:07;;;;;;;6.00;5.40;;;11.80;99.90;;;;;;4976737;28;20543;-50
2022/09/28 03:22:33;;;;;;;5.57;5.07;;;11.40;99.90;;;;;;4976871;28;20450;-50
2022/09/28 03:25:00;;;;;;;5.33;4.83;;;11.50;99.90;;;;;;4976920;28;20496;-50
2022/09/28 03:27:27;;;;;;;8.23;6.67;;;11.10;99.90;;;;;;4977015;28;20487;-49
2022/09/28 03:29:53;;;;;;;8.60;5.50;;;10.60;99.90;;;;;;4976837;28;20453;-50
2022/09/28 03:32:20;;;;;;;6.33;5.43;;;11.30;99.90;;;;;;4994718;28;20793;-50
2022/09/28 03:34:48;;;;;;;9.70;6.43;;;11.70;99.90;;;;;;4994275;28;20490;-50
2022/09/28 03:37:15;;;;;;;6.30;5.20;;;11.10;99.90;;;;;;4976812;28;20458;-49
2022/09/28 03:39:42;;;;;;;9.57;6.00;;;11.50;99.90;;;;;;4976501;28;20465;-49
2022/09/28 03:42:09;;;;;;;5.63;5.13;;;11.20;99.90;;;;;;4994152;28;20439;-48
2022/09/28 03:44:39;;;;;;;8.20;6.40;;;11.00;99.90;;;;;;4976359;28;20888;-49
2022/09/28 03:47:07;;;;;;;6.53;5.63;;;11.00;99.90;;;;;;4976597;28;20481;-49
2022/09/28 03:49:36;;;;;;;8.20;6.40;;;11.10;99.90;;;;;;4976296;28;20449;-49
2022/09/28 03:52:04;;;;;;;5.70;4.90;;;11.10;99.90;;;;;;4976792;28;20425;-48
2022/09/28 03:54:31;;;;;;;6.43;5.60;;;11.00;99.90;;;;;;4993799;28;20489;-49
2022/09/28 03:56:57;;;;;;;7.13;6.40;;;11.00;99.90;;;;;;4976450;28;20541;-49
2022/09/28 03:59:24;;;;;;;7.17;6.00;;;11.20;99.90;;;;;;4975870;28;20470;-49
2022/09/28 04:01:51;;;;;;;7.47;6.37;;;10.90;99.90;;;;;;4976424;28;20451;-49
2022/09/28 04:04:18;;;;;;;9.97;7.13;;;11.00;99.90;;;;;;4976443;28;20491;-49
2022/09/28 04:06:45;;;;;;;6.40;5.80;;;11.00;99.90;;;;;;4976314;28;20504;-48
2022/09/28 04:09:13;;;;;;;7.13;6.13;;;10.90;99.90;;;;;;4993284;28;20441;-50
2022/09/28 04:11:41;;;;;;;8.47;5.60;;;11.30;99.90;;;;;;4976091;28;20826;-51
2022/09/28 04:14:08;;;;;;;8.83;6.60;;;10.80;99.90;;;;;;4976135;28;20489;-49
2022/09/28 04:16:35;;;;;;;9.20;7.13;;;11.30;99.90;;;;;;4976162;28;20966;-49
2022/09/28 04:19:08;;;;;;;8.23;6.37;;;11.00;99.90;;;;;;4975937;28;20482;-49
2022/09/28 04:21:38;;;;;;;7.73;6.50;;;11.30;99.90;;;;;;4993415;28;20956;-49
2022/09/28 04:26:44;;;;;;;9.07;7.50;;;10.80;99.90;;;;;;4993101;28;20457;-48
2022/09/28 04:29:17;;;;;;;11.13;7.87;;;10.80;99.90;;;;;;4994177;28;20453;-47
2022/09/28 04:31:57;;;;;;;11.23;7.10;;;10.80;99.90;;;;;;5012105;28;20400;-47
2022/09/28 04:34:32;;;;;;;13.00;8.33;;;10.50;99.90;;;;;;4994569;28;20476;-47
2022/09/28 04:36:59;;;;;;;8.30;7.10;;;10.60;99.90;;;;;;5012343;28;20444;-47
2022/09/28 04:39:25;;;;;;;8.13;7.33;;;10.80;99.90;;;;;;4994050;28;20563;-47
2022/09/28 04:41:55;;;;;;;11.30;7.27;;;10.50;99.90;;;;;;4994414;28;20441;-48
2022/09/28 04:44:22;;;;;;;9.40;7.33;;;11.10;99.90;;;;;;4994431;28;20940;-46
2022/09/28 04:46:52;;;;;;;8.00;7.20;;;10.50;99.90;;;;;;4994504;28;20452;-48
2022/09/28 04:49:30;;;;;;;9.90;8.07;;;10.80;99.90;;;;;;5011549;28;20455;-47
2022/09/28 04:52:02;;;;;;;8.90;8.00;;;10.10;99.90;;;;;;4994581;28;20536;-48
2022/09/28 04:54:28;;;;;;;10.17;7.53;;;10.70;99.90;;;;;;4994178;28;20486;-48
2022/09/28 04:56:58;;;;;;;9.50;6.87;;;10.70;99.90;;;;;;4994242;28;20415;-47
2022/09/28 04:59:24;;;;;;;7.80;6.93;;;10.70;99.90;;;;;;5011333;28;20449;-47
2022/09/28 05:01:52;;;;;;;13.37;7.50;;;10.80;99.90;;;;;;4994317;28;20487;-47
2022/09/28 05:04:25;;;;;;;11.63;9.10;;;10.50;99.90;;;;;;5012113;28;20472;-48
2022/09/28 05:07:02;;;;;;;9.93;7.77;;;11.20;99.90;;;;;;4993929;28;20448;-48
2022/09/28 05:09:29;;;;;;;8.93;7.20;;;10.30;99.90;;;;;;4993406;28;20448;-47
2022/09/28 05:11:57;;;;;;;8.50;6.33;;;10.50;99.90;;;;;;4993919;28;20470;-47
2022/09/28 05:14:25;;;;;;;8.10;7.30;;;11.40;99.90;;;;;;4994454;28;20512;-46
2022/09/28 05:16:52;;;;;;;8.10;7.30;;;10.60;99.90;;;;;;5012293;28;20422;-46
2022/09/28 05:19:22;;;;;;;8.97;7.07;;;11.10;99.90;;;;;;5012437;28;20415;-47
2022/09/28 05:21:50;;;;;;;7.60;6.73;;;10.90;99.90;;;;;;4994550;28;20503;-47
2022/09/28 05:24:17;;;;;;;9.67;7.73;;;10.90;99.90;;;;;;4994605;28;20452;-47
2022/09/28 05:26:49;;;;;;;12.70;7.27;;;10.30;99.90;;;;;;4994907;28;20460;-46
2022/09/28 05:29:17;;;;;;;7.87;6.63;;;11.30;99.90;;;;;;4993864;28;20961;-47
2022/09/28 05:32:03;;;;;;;7.33;6.60;;;11.00;99.90;;;;;;5011378;28;20452;-48
2022/09/28 05:34:49;;;;;;;8.83;7.00;;;11.00;99.90;;;;;;5013566;28;20508;-48
2022/09/28 05:37:22;;;;;;;14.03;8.67;;;10.80;99.90;;;;;;4997778;28;20651;-48
2022/09/28 05:39:49;;;;;;;8.33;6.83;;;11.10;99.90;;;;;;4996952;28;20466;-48
2022/09/28 05:42:15;;;;;;;8.33;7.50;;;10.50;99.90;;;;;;4997260;28;20814;-47
2022/09/28 05:44:44;;;;;;;11.40;7.50;;;11.30;99.90;;;;;;4997572;28;20568;-48
2022/09/28 05:47:12;;;;;;;8.47;7.13;;;11.10;99.90;;;;;;4997092;28;20448;-48
2022/09/28 05:49:39;;;;;;;8.70;7.80;;;11.10;99.90;;;;;;4997208;28;20452;-48
2022/09/28 05:52:05;;;;;;;9.03;7.43;;;11.00;99.90;;;;;;5015386;28;20908;-47
2022/09/28 05:54:36;;;;;;;9.07;7.60;;;11.00;99.90;;;;;;4996957;28;20549;-47
2022/09/28 05:57:04;;;;;;;9.80;8.27;;;10.50;99.90;;;;;;5014832;28;20924;-48
2022/09/28 05:59:33;;;;;;;7.63;6.83;;;11.00;99.90;;;;;;5014562;28;20440;-48
2022/09/28 06:02:02;;;;;;;8.77;7.87;;;11.10;99.90;;;;;;4997747;28;20919;-47
2022/09/28 06:04:29;;;;;;;9.10;7.03;;;11.10;99.90;;;;;;5013631;28;20434;-47
2022/09/28 06:06:56;;;;;;;8.80;6.90;;;11.20;99.90;;;;;;4997129;28;20971;-48
2022/09/28 06:09:23;;;;;;;10.90;7.70;;;11.10;99.90;;;;;;4996491;28;20462;-47
2022/09/28 06:11:57;;;;;;;7.87;6.77;;;11.30;99.90;;;;;;5014854;28;20498;-48
2022/09/28 06:14:37;;;;;;;8.53;7.10;;;11.20;99.90;;;;;;5013396;28;20492;-47
2022/09/28 06:17:05;;;;;;;8.87;7.10;;;11.30;99.90;;;;;;4996992;28;20564;-48
2022/09/28 06:19:32;;;;;;;9.80;7.87;;;11.70;99.90;;;;;;4996803;28;20990;-47
2022/09/28 06:22:22;;;;;;;10.27;8.83;;;11.40;99.90;;;;;;4996555;28;20972;-48
2022/09/28 06:24:55;;;;;;;11.00;7.77;;;11.50;99.90;;;;;;5012666;28;20511;-49
2022/09/28 06:27:24;;;;;;;10.97;8.03;;;11.60;99.90;;;;;;4996381;28;20453;-49
2022/09/28 06:29:50;;;;;;;10.90;8.03;;;11.80;99.90;;;;;;4996111;28;20970;-48
2022/09/28 06:32:18;;;;;;;8.50;7.70;;;11.90;99.90;;;;;;4996244;28;20473;-48
2022/09/28 06:34:48;;;;;;;11.33;6.63;;;11.50;99.90;;;;;;4996687;28;20489;-47
2022/09/28 06:37:14;;;;;;;8.63;6.97;;;11.80;99.90;;;;;;4996370;28;20544;-48
2022/09/28 06:39:41;;;;;;;7.70;7.00;;;11.90;99.90;;;;;;4996394;28;20466;-47
2022/09/28 06:42:09;;;;;;;12.07;8.50;;;11.90;99.90;;;;;;4996448;28;20997;-49
2022/09/28 06:44:58;;;;;;;8.73;7.07;;;11.90;99.90;;;;;;5013445;28;20468;-48
2022/09/28 06:47:44;;;;;;;9.50;8.20;;;12.20;99.90;;;;;;4995773;28;20427;-47
2022/09/28 06:50:24;;;;;;;9.80;7.80;;;11.90;99.90;;;;;;4996210;28;20847;-47
2022/09/28 06:53:08;;;;;;;18.43;13.57;;;12.00;99.90;;;;;;4996424;28;20528;-47
2022/09/28 06:55:53;;;;;;;12.40;9.07;;;11.80;99.90;;;;;;5013963;28;20556;-47
2022/09/28 06:58:21;;;;;;;9.37;7.40;;;11.30;99.90;;;;;;5014121;28;20430;-48
2022/09/28 07:00:50;;;;;;;8.37;7.57;;;12.00;99.90;;;;;;4995900;28;20464;-47
2022/09/28 07:03:20;;;;;;;9.30;8.20;;;11.80;99.90;;;;;;5013243;28;20433;-49
2022/09/28 07:06:06;;;;;;;9.97;8.87;;;11.50;99.90;;;;;;5013438;28;20487;-47
2022/09/28 07:09:05;;;;;;;9.90;8.33;;;12.20;99.90;;;;;;5012905;28;20454;-48
2022/09/28 07:11:52;;;;;;;10.53;9.33;;;12.10;99.90;;;;;;5012616;28;20541;-48
2022/09/28 07:14:26;;;;;;;10.40;8.37;;;11.90;99.90;;;;;;4995737;28;20556;-48
2022/09/28 07:16:55;;;;;;;14.40;9.53;;;12.10;99.90;;;;;;4995874;28;20445;-47
2022/09/28 07:19:23;;;;;;;12.20;8.70;;;11.80;99.90;;;;;;4995203;28;20463;-48
2022/09/28 07:21:51;;;;;;;15.33;8.30;;;11.80;99.90;;;;;;4995844;28;20445;-47
2022/09/28 07:24:18;;;;;;;11.73;9.50;;;11.70;99.90;;;;;;5011532;28;20456;-47
2022/09/28 07:27:04;;;;;;;12.07;10.57;;;11.90;99.90;;;;;;5013459;28;20403;-48
2022/09/28 07:29:58;;;;;;;12.40;9.10;;;11.90;99.90;;;;;;5008355;28;20473;-48
2022/09/28 07:32:45;;;;;;;12.00;9.50;;;12.10;99.90;;;;;;4995070;28;20602;-48
2022/09/28 07:35:22;;;;;;;11.83;9.27;;;11.90;99.90;;;;;;4995409;28;20484;-49
2022/09/28 07:37:59;;;;;;;10.70;9.60;;;12.30;99.90;;;;;;4994848;28;20517;-48
2022/09/28 07:43:11;;;;;;;12.47;9.90;;;12.00;99.90;;;;;;5011731;28;20459;-48
2022/09/28 07:45:38;;;;;;;11.37;9.40;;;12.40;99.90;;;;;;4995396;28;20532;-48
2022/09/28 07:48:05;;;;;;;10.37;9.13;;;12.20;99.90;;;;;;5013020;28;20526;-48
2022/09/28 07:50:58;;;;;;;10.93;9.83;;;12.20;99.90;;;;;;5013445;28;20472;-47
2022/09/28 07:53:40;;;;;;;10.00;8.70;;;12.30;99.90;;;;;;4995315;28;20522;-47
2022/09/28 07:56:19;;;;;;;10.43;9.33;;;12.40;99.90;;;;;;4995371;28;20812;-48
2022/09/28 07:59:17;;;;;;;10.80;9.47;;;12.50;99.90;;;;;;4994400;28;20487;-48
2022/09/28 08:02:02;;;;;;;10.67;9.57;;;11.70;99.90;;;;;;5012528;28;20942;-46
2022/09/28 08:04:29;;;;;;;11.50;10.10;;;12.30;99.90;;;;;;4994999;28;20511;-47
2022/09/28 08:06:59;;;;;;;11.43;10.30;;;12.20;99.90;;;;;;4994743;28;20514;-47
2022/09/28 08:09:26;;;;;;;15.60;10.67;;;12.00;99.90;;;;;;4994731;28;20498;-47
2022/09/28 08:12:24;;;;;;;21.13;10.30;;;12.80;99.90;;;;;;5012765;28;20443;-48
2022/09/28 08:15:09;;;;;;;11.00;9.80;;;12.40;99.90;;;;;;4994701;28;20515;-47
2022/09/28 08:17:46;;;;;;;16.40;9.77;;;12.50;99.90;;;;;;5012445;28;20433;-47
2022/09/28 08:23:03;;;;;;;10.77;9.63;;;12.90;99.90;;;;;;4991422;28;20437;-48
2022/09/28 08:25:30;;;;;;;11.10;9.87;;;12.70;99.90;;;;;;4994656;28;20481;-49
2022/09/28 08:28:00;;;;;;;10.30;9.30;;;13.00;99.90;;;;;;4994612;28;20454;-47
2022/09/28 08:30:30;;;;;;;12.40;9.43;;;13.10;99.90;;;;;;5010889;28;20502;-47
2022/09/28 08:33:13;;;;;;;11.30;9.97;;;13.30;99.90;;;;;;5012554;28;20421;-48
2022/09/28 08:35:43;;;;;;;11.73;9.63;;;13.20;99.90;;;;;;5011942;28;20501;-48
2022/09/28 08:38:37;;;;;;;10.40;9.10;;;13.10;99.90;;;;;;5007461;28;20576;-48
2022/09/28 08:41:35;;;;;;;12.50;8.47;;;13.60;99.90;;;;;;5012021;28;20430;-48
2022/09/28 08:44:23;;;;;;;11.27;9.47;;;13.50;99.90;;;;;;5012327;28;20433;-48
2022/09/28 08:48:42;;;;;;;10.10;8.40;;;13.50;99.90;;;;;;4993943;28;20777;-47
2022/09/28 08:50:41;;;;;;;11.33;7.70;;;13.70;99.90;;;;;;4995556;28;20440;-48
2022/09/28 08:53:33;;;;;;;8.70;7.90;;;13.80;99.90;;;;;;4994003;28;20505;-48
2022/09/28 08:56:21;;;;;;;8.83;7.77;;;14.00;99.90;;;;;;4993669;28;20504;-48
2022/09/28 08:58:55;;;;;;;8.90;8.00;;;13.80;99.90;;;;;;5011543;28;20434;-49
2022/09/28 09:01:25;;;;;;;10.80;9.70;;;13.90;99.90;;;;;;4993915;28;20450;-49
2022/09/28 09:03:52;;;;;;;9.80;8.57;;;13.90;99.90;;;;;;4994634;28;20448;-48
2022/09/28 09:06:48;;;;;;;10.10;8.67;;;14.10;99.90;;;;;;4993914;28;20493;-48
2022/09/28 09:09:36;;;;;;;9.20;8.30;;;14.30;99.90;;;;;;4993471;28;20461;-47
2022/09/28 09:12:12;;;;;;;8.70;7.80;;;14.10;99.90;;;;;;4994149;28;20790;-47
2022/09/28 09:15:12;;;;;;;10.40;8.23;;;14.30;99.90;;;;;;4993960;28;20554;-47
2022/09/28 09:17:47;;;;;;;11.80;8.80;;;14.40;99.90;;;;;;4994281;28;20956;-47
2022/09/28 09:20:50;;;;;;;8.07;7.37;;;14.40;99.90;;;;;;4984288;28;20448;-48
2022/09/28 09:23:36;;;;;;;10.70;8.67;;;14.40;99.90;;;;;;4993942;28;20462;-48
2022/09/28 09:26:13;;;;;;;13.70;8.47;;;14.40;99.90;;;;;;4994098;28;20482;-48
2022/09/28 09:29:02;;;;;;;9.60;6.90;;;14.50;99.90;;;;;;4993407;28;20945;-47
2022/09/28 09:31:51;;;;;;;9.23;7.00;;;14.60;99.90;;;;;;4994308;28;20452;-48
2022/09/28 09:34:39;;;;;;;7.40;6.70;;;14.90;99.90;;;;;;4993649;28;21022;-47
2022/09/28 09:37:49;;;;;;;7.60;6.90;;;15.00;99.90;;;;;;4989781;28;20450;-48
2022/09/28 09:40:51;;;;;;;6.90;6.20;;;15.40;99.90;;;;;;5011314;28;20435;-47
2022/09/28 09:43:57;;;;;;;6.33;5.73;;;15.20;99.90;;;;;;5010971;28;20503;-47
2022/09/28 09:46:46;;;;;;;8.10;6.10;;;15.30;99.90;;;;;;5011834;28;20755;-48
2022/09/28 09:49:33;;;;;;;8.10;7.30;;;15.40;99.90;;;;;;5011045;28;20817;-47
2022/09/28 09:52:06;;;;;;;7.53;6.83;;;15.40;99.90;;;;;;4993526;28;20451;-47
2022/09/28 09:54:37;;;;;;;6.67;5.27;;;15.80;99.90;;;;;;4993633;28;20522;-48
2022/09/28 09:57:11;;;;;;;17.00;6.93;;;15.60;99.60;;;;;;4993213;28;20516;-49
2022/09/28 10:00:01;;;;;;;7.73;5.17;;;15.70;99.30;;;;;;4993362;28;20887;-48
2022/09/28 10:02:50;;;;;;;4.80;4.20;;;15.70;98.90;;;;;;5011664;28;20448;-47
2022/09/28 10:05:36;;;;;;;6.03;5.43;;;15.80;99.00;;;;;;4994635;28;20550;-47
2022/09/28 10:08:10;;;;;;;5.47;4.30;;;15.80;98.80;;;;;;4993572;28;20449;-47
2022/09/28 10:10:47;;;;;;;5.10;4.53;;;15.90;98.60;;;;;;5009420;28;20460;-49
2022/09/28 10:13:16;;;;;;;5.10;4.00;;;16.00;98.40;;;;;;4993738;28;20997;-48
2022/09/28 10:15:46;;;;;;;6.53;4.70;;;15.60;97.90;;;;;;4993201;28;20479;-48
2022/09/28 10:18:34;;;;;;;8.60;3.60;;;16.10;97.70;;;;;;5010846;28;20464;-47
2022/09/28 10:21:22;;;;;;;4.87;3.50;;;16.60;97.30;;;;;;5012334;28;20889;-47
2022/09/28 10:24:17;;;;;;;6.30;4.30;;;16.00;96.50;;;;;;5014140;28;20516;-48
2022/09/28 10:26:49;;;;;;;4.17;2.97;;;16.10;96.50;;;;;;4997388;28;20466;-48
2022/09/28 10:29:19;;;;;;;6.17;3.20;;;16.00;96.30;;;;;;5013890;28;20403;-49
2022/09/28 10:31:49;;;;;;;3.87;3.57;;;15.90;96.30;;;;;;4996515;28;20452;-48
2022/09/28 10:34:35;;;;;;;2.90;2.70;;;15.70;96.00;;;;;;4996315;28;20452;-49
2022/09/28 10:37:10;;;;;;;5.90;3.63;;;15.90;95.70;;;;;;4996317;28;20498;-49
2022/09/28 10:39:57;;;;;;;3.60;2.27;;;15.50;95.50;;;;;;5012371;28;20429;-48
2022/09/28 10:42:29;;;;;;;3.03;1.93;;;15.80;95.70;;;;;;4996148;28;20453;-48
2022/09/28 10:45:00;;;;;;;3.43;2.47;;;15.60;95.60;;;;;;4995939;28;20476;-48
2022/09/28 10:47:37;;;;;;;3.53;1.90;;;15.30;95.60;;;;;;4995952;28;20882;-48
2022/09/28 10:50:19;;;;;;;6.33;2.10;;;15.50;95.70;;;;;;5013475;28;20457;-48
2022/09/28 10:52:46;;;;;;;3.63;2.33;;;15.10;94.40;;;;;;4996090;28;20526;-49
2022/09/28 10:55:32;;;;;;;4.87;2.10;;;15.10;95.10;;;;;;4996072;28;20566;-49
2022/09/28 10:58:00;;;;;;;3.43;2.03;;;15.10;95.20;;;;;;4995642;28;20460;-49
2022/09/28 11:00:40;;;;;;;6.17;2.60;;;14.80;95.00;;;;;;4995630;28;20543;-48
2022/09/28 11:03:22;;;;;;;5.27;3.10;;;15.00;95.40;;;;;;4995806;28;20824;-48
2022/09/28 11:05:55;;;;;;;5.17;2.60;;;15.10;95.60;;;;;;4995989;28;20446;-48
2022/09/28 11:08:29;;;;;;;3.00;1.97;;;15.20;95.90;;;;;;4995767;28;20458;-49
2022/09/28 11:11:07;;;;;;;6.30;2.57;;;14.80;95.80;;;;;;4995698;28;20843;-49
2022/09/28 11:13:45;;;;;;;4.03;2.23;;;15.80;96.40;;;;;;4995546;28;20499;-48
2022/09/28 11:16:21;;;;;;;2.40;1.83;;;15.40;95.60;;;;;;4995434;28;20972;-50
2022/09/28 11:18:49;;;;;;;4.37;2.00;;;15.20;95.50;;;;;;4995514;28;20487;-49
2022/09/28 11:21:17;;;;;;;4.07;2.30;;;15.20;95.40;;;;;;5013450;28;20436;-48
2022/09/28 11:24:06;;;;;;;4.80;3.10;;;15.40;95.60;;;;;;4995550;28;20784;-49
2022/09/28 11:26:38;;;;;;;3.10;2.60;;;15.70;96.30;;;;;;4995894;28;20487;-49
2022/09/28 11:29:06;;;;;;;4.80;2.90;;;15.40;96.30;;;;;;4995174;28;20460;-49
2022/09/28 11:31:47;;;;;;;5.40;4.90;;;15.60;96.50;;;;;;4995340;28;20456;-49
2022/09/28 11:34:25;;;;;;;3.97;3.53;;;15.50;96.50;;;;;;4995233;28;20449;-48
2022/09/28 11:37:30;;;;;;;6.37;4.33;;;15.40;96.60;;;;;;4995117;28;20852;-48
2022/09/28 11:40:14;;;;;;;4.37;3.00;;;15.60;96.20;;;;;;4982606;28;20457;-49
2022/09/28 11:42:47;;;;;;;3.57;3.20;;;15.90;96.40;;;;;;4995351;28;20515;-49
2022/09/28 11:45:29;;;;;;;4.07;2.93;;;15.70;96.50;;;;;;4994438;28;20870;-50
2022/09/28 11:48:00;;;;;;;3.67;3.13;;;15.60;96.40;;;;;;4995352;28;20826;-49
2022/09/28 11:50:35;;;;;;;4.03;3.20;;;15.60;96.30;;;;;;5011151;28;20492;-48
2022/09/28 11:53:11;;;;;;;3.00;2.27;;;15.50;96.20;;;;;;4994767;28;20518;-49
2022/09/28 11:55:42;;;;;;;2.70;2.50;;;15.70;96.20;;;;;;4995073;28;20571;-49
2022/09/28 11:58:14;;;;;;;5.30;2.50;;;15.60;96.20;;;;;;4994775;28;20968;-49
2022/09/28 12:00:47;;;;;;;3.90;2.30;;;15.50;96.00;;;;;;4994670;28;20909;-49
2022/09/28 12:03:18;;;;;;;3.57;2.30;;;15.60;95.80;;;;;;5011414;28;20472;-47
2022/09/28 12:05:50;;;;;;;4.80;2.77;;;15.60;95.80;;;;;;4994786;28;20481;-50
2022/09/28 12:08:24;;;;;;;4.70;2.80;;;15.50;95.50;;;;;;4994465;28;20493;-49
2022/09/28 12:11:18;;;;;;;8.10;3.30;;;15.00;95.40;;;;;;5011684;28;20432;-48
2022/09/28 12:14:19;;;;;;;3.10;1.60;;;15.20;95.70;;;;;;4993923;28;20462;-48
2022/09/28 12:16:51;;;;;;;2.60;1.90;;;15.60;95.70;;;;;;5012026;28;20475;-50
2022/09/28 12:19:22;;;;;;;2.90;2.60;;;15.30;95.50;;;;;;5012156;28;20780;-49
2022/09/28 12:21:52;;;;;;;7.70;2.37;;;15.40;95.60;;;;;;5012365;28;20440;-49
2022/09/28 12:24:24;;;;;;;4.23;1.97;;;15.40;95.50;;;;;;5011673;28;20457;-48
2022/09/28 12:26:56;;;;;;;4.50;2.60;;;15.30;95.20;;;;;;5011870;28;20503;-48
2022/09/28 12:29:29;;;;;;;2.87;2.17;;;15.40;94.80;;;;;;5011675;28;20447;-49
2022/09/28 12:32:04;;;;;;;4.30;2.50;;;15.40;94.60;;;;;;5011708;28;20788;-49
2022/09/28 12:34:30;;;;;;;4.90;1.60;;;15.60;94.40;;;;;;5010816;28;20535;-48
2022/09/28 12:37:15;;;;;;;4.40;1.87;;;15.40;94.40;;;;;;5011758;28;20487;-48
2022/09/28 12:39:53;;;;;;;4.57;1.60;;;15.60;94.30;;;;;;5011617;28;20443;-48
2022/09/28 12:42:44;;;;;;;5.83;3.53;;;15.50;94.10;;;;;;5011620;28;20434;-49
2022/09/28 12:45:39;;;;;;;2.30;1.57;;;15.60;93.90;;;;;;5011521;28;20992;-48
2022/09/28 12:48:22;;;;;;;3.07;1.80;;;15.90;93.90;;;;;;4998892;28;20453;-50
2022/09/28 12:51:00;;;;;;;2.30;1.57;;;15.70;93.80;;;;;;4994030;28;20468;-49
2022/09/28 12:53:43;;;;;;;6.90;1.77;;;15.70;93.90;;;;;;5011979;28;20790;-48
2022/09/28 12:56:18;;;;;;;3.70;1.53;;;15.80;94.00;;;;;;5011622;28;20977;-49
2022/09/28 12:58:59;;;;;;;3.30;1.60;;;15.60;93.80;;;;;;5011102;28;20447;-49
2022/09/28 13:01:45;;;;;;;4.20;1.40;;;15.80;93.60;;;;;;5011753;28;20484;-49
2022/09/28 13:04:28;;;;;;;3.57;1.60;;;15.70;93.10;;;;;;5011724;28;20530;-49
2022/09/28 13:07:01;;;;;;;5.40;2.07;;;15.90;93.50;;;;;;5012006;28;20432;-48
2022/09/28 13:09:39;;;;;;;14.03;3.17;;;16.00;93.70;;;;;;5011298;28;20463;-48
2022/09/28 13:12:25;;;;;;;1.63;1.40;;;15.80;93.50;;;;;;5011098;28;20407;-49
2022/09/28 13:15:22;;;;;;;6.27;2.43;;;15.80;93.40;;;;;;5011351;28;20452;-48
2022/09/28 13:17:56;;;;;;;5.63;1.83;;;15.80;93.10;;;;;;5011311;28;20959;-49
2022/09/28 13:20:38;;;;;;;4.47;1.60;;;15.80;93.10;;;;;;5011069;28;20900;-50
2022/09/28 13:23:17;;;;;;;4.57;1.50;;;15.80;92.90;;;;;;5011281;28;20456;-48
2022/09/28 13:25:53;;;;;;;9.13;1.97;;;16.20;93.00;;;;;;5011246;28;20502;-48
2022/09/28 13:28:22;;;;;;;2.67;1.60;;;15.80;92.80;;;;;;5011182;28;20415;-49
2022/09/28 13:30:50;;;;;;;2.57;2.10;;;15.80;92.60;;;;;;5011010;28;20894;-49
2022/09/28 13:33:22;;;;;;;2.27;1.40;;;16.30;92.80;;;;;;5011024;28;20440;-48
2022/09/28 13:35:49;;;;;;;1.47;1.10;;;15.70;92.60;;;;;;5010702;28;20862;-48